Time,TemperatureF,DewpointF,PressureIn,WindDirection,WindDirectionDegrees,WindSpeedMPH,WindSpeedGustMPH,Humidity,HourlyPrecipIn,Conditions,Clouds,dailyrainin,SolarRadiationWatts/m^2,SoftwareType,DateUTC
2013-11-09 00:52:00,36.5,34.9,30.36,East,94,0.0,0.0,94,0.00,,OVC018,0.00,0.00,VWS V14.00,2013-11-09 05:52:00,
2013-11-09 01:52:00,36.7,35.4,30.36,East,94,0.0,0.0,95,0.00,,OVC018,0.00,0.00,VWS V14.00,2013-11-09 06:52:00,
2013-11-09 02:52:00,36.0,34.7,30.36,East,94,0.0,0.0,95,0.00,,OVC018,0.00,0.00,VWS V14.00,2013-11-09 07:52:00,
2013-11-09 03:52:00,36.0,34.7,30.37,NNW,342,0.0,0.0,95,0.00,,OVC018,0.00,0.00,VWS V14.00,2013-11-09 08:52:00,
2013-11-09 04:52:00,34.3,33.0,30.39,NNW,342,0.0,0.0,95,0.00,,OVC018,0.00,0.00,VWS V14.00,2013-11-09 09:52:00,
2013-11-09 05:52:00,33.6,32.3,30.42,NNW,342,0.0,0.0,95,0.00,,OVC018,0.00,0.00,VWS V14.00,2013-11-09 10:52:00,
2013-11-09 06:52:00,32.3,31.0,30.45,NNW,342,0.0,0.0,95,0.00,,OVC018,0.00,0.00,VWS V14.00,2013-11-09 11:52:00,
2013-11-09 07:52:00,34.2,33.2,30.45,NNW,342,0.0,0.0,96,0.00,,OVC018,0.00,60.00,VWS V14.00,2013-11-09 12:52:00,
2013-11-09 08:52:00,39.6,38.6,30.46,NNW,335,0.0,1.0,96,0.00,,OVC018,0.00,255.00,VWS V14.00,2013-11-09 13:52:00,
2013-11-09 09:52:00,48.4,40.5,30.45,ESE,119,2.0,4.0,74,0.00,,OVC018,0.00,350.00,VWS V14.00,2013-11-09 14:52:00,
2013-11-09 10:52:00,55.0,37.7,30.43,SE,129,0.0,3.0,52,0.00,,OVC018,0.00,494.00,VWS V14.00,2013-11-09 15:52:00,
2013-11-09 11:52:00,59.2,36.1,30.41,ESE,122,2.0,5.0,42,0.00,,OVC018,0.00,355.00,VWS V14.00,2013-11-09 16:52:00,
2013-11-09 12:52:00,60.7,33.6,30.36,SE,143,0.0,5.0,36,0.00,,OVC018,0.00,455.00,VWS V14.00,2013-11-09 17:52:00,
2013-11-09 13:52:00,60.8,33.7,30.34,SSW,203,3.0,6.0,36,0.00,,OVC018,0.00,325.00,VWS V14.00,2013-11-09 18:52:00,
2013-11-09 14:52:00,62.0,35.5,30.34,NNE,20,0.0,1.0,37,0.00,,OVC018,0.00,255.00,VWS V14.00,2013-11-09 19:52:00,
2013-11-09 15:52:00,61.0,35.9,30.34,ENE,72,0.0,0.0,39,0.00,,OVC018,0.00,135.00,VWS V14.00,2013-11-09 20:52:00,
2013-11-09 16:52:00,56.5,42.8,30.35,East,82,0.0,0.0,60,0.00,,OVC018,0.00,21.00,VWS V14.00,2013-11-09 21:52:00,
2013-11-09 17:52:00,53.2,42.2,30.33,East,82,0.0,0.0,66,0.00,,OVC018,0.00,0.00,VWS V14.00,2013-11-09 22:52:00,
2013-11-09 18:52:00,51.2,43.2,30.35,East,82,0.0,0.0,74,0.00,,OVC018,0.00,0.00,VWS V14.00,2013-11-09 23:52:00,
2013-11-09 19:52:00,50.0,43.4,30.35,East,82,0.0,0.0,78,0.00,,OVC018,0.00,0.00,VWS V14.00,2013-11-10 00:52:00,
2013-11-09 20:52:00,49.6,42.7,30.35,North,349,0.0,1.0,77,0.00,,OVC018,0.00,0.00,VWS V14.00,2013-11-10 01:52:00,
2013-11-09 21:52:00,48.2,43.6,30.32,North,349,0.0,0.0,84,0.00,,OVC018,0.00,0.00,VWS V14.00,2013-11-10 02:52:00,
2013-11-09 22:52:00,48.3,43.7,30.31,NNW,334,0.0,0.0,84,0.00,,OVC018,0.00,0.00,VWS V14.00,2013-11-10 03:52:00,
2013-11-09 23:52:00,47.1,43.7,30.30,NNW,335,0.0,0.0,88,0.00,,OVC018,0.00,0.00,VWS V14.00,2013-11-10 04:52:00,